createdAt,value
2018-07-22T05:59:18.515Z,25.70
2018-07-22T06:01:48.062Z,25.60
2018-07-22T06:04:17.850Z,25.60
2018-07-22T06:06:47.345Z,25.70
2018-07-22T06:09:16.821Z,25.60
2018-07-22T06:11:46.403Z,25.60
2018-07-22T06:14:15.815Z,25.60
2018-07-22T06:16:45.452Z,25.70
2018-07-22T06:21:44.939Z,25.70
2018-07-22T06:24:14.428Z,25.80
2018-07-22T06:26:43.876Z,25.80
2018-07-22T06:29:13.401Z,25.80
2018-07-22T06:31:42.776Z,25.80
2018-07-22T06:34:12.179Z,25.90
2018-07-22T06:36:41.906Z,25.90
2018-07-22T06:39:13.387Z,26.00
2018-07-22T06:41:43.957Z,25.90
2018-07-22T06:44:13.455Z,25.90
2018-07-22T06:46:42.977Z,25.90
2018-07-22T06:49:12.359Z,26.00
2018-07-22T06:51:41.858Z,26.00
2018-07-22T06:54:11.281Z,26.00
2018-07-22T06:56:40.895Z,26.00
2018-07-22T06:59:10.337Z,26.00
2018-07-22T07:01:39.803Z,26.00
2018-07-22T07:04:09.261Z,26.00
2018-07-22T07:06:38.654Z,26.00
2018-07-22T07:09:10.961Z,26.10
2018-07-22T07:11:41.192Z,26.10
2018-07-22T07:14:11.298Z,26.10
2018-07-22T07:16:40.826Z,26.10
2018-07-22T07:19:10.414Z,26.10
2018-07-22T07:21:39.922Z,26.20
2018-07-22T07:24:09.327Z,26.20
2018-07-22T07:26:38.774Z,26.20
2018-07-22T07:29:08.315Z,26.20
2018-07-22T07:31:37.877Z,26.30
2018-07-22T07:34:07.795Z,26.30
2018-07-22T07:36:37.252Z,26.30
2018-07-22T07:39:09.802Z,26.40
2018-07-22T07:41:39.327Z,26.40
2018-07-22T07:44:08.932Z,26.40
2018-07-22T07:46:38.436Z,26.50
2018-07-22T07:49:07.860Z,26.50
2018-07-22T07:51:37.285Z,26.50
2018-07-22T07:54:06.785Z,26.60
2018-07-22T07:59:05.279Z,26.70
2018-07-22T08:01:34.738Z,26.80
2018-07-22T08:04:04.208Z,26.80
2018-07-22T08:06:33.846Z,26.90
2018-07-22T08:09:03.394Z,27.00
2018-07-22T08:11:32.809Z,26.90
2018-07-22T08:14:02.210Z,27.00
2018-07-22T08:19:00.681Z,27.20
2018-07-22T08:21:30.123Z,27.20
2018-07-22T08:23:59.697Z,27.30
2018-07-22T08:26:29.156Z,27.30
2018-07-22T08:29:30.746Z,27.40
2018-07-22T08:32:00.756Z,27.40
2018-07-22T08:34:30.340Z,27.40
2018-07-22T08:37:00.275Z,27.40
2018-07-22T08:39:30.815Z,27.50
2018-07-22T08:42:00.857Z,27.50
2018-07-22T08:46:59.250Z,27.60
2018-07-22T08:49:28.774Z,27.70
2018-07-22T08:51:58.282Z,27.70
2018-07-22T08:54:27.749Z,27.70
2018-07-22T08:56:57.234Z,27.80
2018-07-22T08:59:27.680Z,27.90
2018-07-22T09:01:57.206Z,27.90
2018-07-22T09:04:26.687Z,27.90
2018-07-22T09:06:56.077Z,28.00
2018-07-22T09:09:25.520Z,28.10
2018-07-22T09:11:55.038Z,28.10
2018-07-22T09:14:24.451Z,28.20
2018-07-22T09:16:54.001Z,28.20
2018-07-22T09:19:23.417Z,28.30
2018-07-22T09:21:52.960Z,28.40
2018-07-22T09:24:22.515Z,28.40
2018-07-22T09:26:51.986Z,28.50
2018-07-22T09:29:21.426Z,28.50
2018-07-22T09:31:50.951Z,28.70
2018-07-22T09:36:49.203Z,28.70
2018-07-22T09:39:18.665Z,28.70
2018-07-22T09:41:49.070Z,28.70
2018-07-22T09:44:18.512Z,28.70
2018-07-22T09:46:47.915Z,28.70
2018-07-22T09:49:17.371Z,28.70
2018-07-22T09:51:46.816Z,28.70
2018-07-22T09:54:16.246Z,28.70
2018-07-22T09:56:45.664Z,28.80
2018-07-22T09:59:15.121Z,28.90
2018-07-22T10:01:44.600Z,29.00
2018-07-22T10:06:42.900Z,29.00
2018-07-22T10:09:12.727Z,29.20
2018-07-22T10:11:42.249Z,29.20
2018-07-22T10:14:11.702Z,29.20
2018-07-22T10:16:41.091Z,29.10
2018-07-22T10:19:10.497Z,29.00
2018-07-22T10:21:39.993Z,28.90
2018-07-22T10:24:09.392Z,28.90
2018-07-22T10:26:38.883Z,28.90
2018-07-22T10:29:08.369Z,28.90
2018-07-22T10:31:37.797Z,29.00
2018-07-22T10:34:07.293Z,29.20
2018-07-22T10:36:36.842Z,29.30
2018-07-22T10:39:09.419Z,29.40
2018-07-22T10:41:38.835Z,29.50
2018-07-22T10:44:08.570Z,29.60
2018-07-22T10:46:38.104Z,29.60
2018-07-22T10:49:07.576Z,29.60
2018-07-22T10:51:37.020Z,29.70
2018-07-22T10:54:06.591Z,29.70
2018-07-22T10:56:36.198Z,29.80
2018-07-22T10:59:07.784Z,29.80
2018-07-22T11:01:37.299Z,29.70
2018-07-22T11:04:06.750Z,29.70
2018-07-22T11:06:36.195Z,29.70
2018-07-22T11:09:08.320Z,29.80
2018-07-22T11:11:37.902Z,29.80
2018-07-22T11:14:07.476Z,29.80
2018-07-22T11:16:37.224Z,29.70
2018-07-22T11:19:06.736Z,29.70
2018-07-22T11:21:36.180Z,29.70
2018-07-22T11:24:05.636Z,29.80
2018-07-22T11:26:35.421Z,29.70
2018-07-22T11:29:05.876Z,29.70
2018-07-22T11:31:35.284Z,29.90
2018-07-22T11:34:04.801Z,29.90
2018-07-22T11:36:34.319Z,29.90
2018-07-22T11:39:03.971Z,29.90
2018-07-22T11:41:33.512Z,29.90
2018-07-22T11:44:03.055Z,29.90
2018-07-22T11:46:32.558Z,29.90
2018-07-22T11:49:02.079Z,29.80
2018-07-22T11:51:31.635Z,29.80
2018-07-22T11:54:01.119Z,29.80
2018-07-22T11:58:59.407Z,29.80
2018-07-22T12:01:28.910Z,29.80
2018-07-22T12:03:58.414Z,29.80
2018-07-22T12:06:27.848Z,29.80
2018-07-22T12:08:57.281Z,29.70
2018-07-22T12:11:26.723Z,29.80
2018-07-22T12:13:56.104Z,29.70
2018-07-22T12:16:25.936Z,29.80
2018-07-22T12:18:55.409Z,29.80
2018-07-22T12:21:24.865Z,29.80
2018-07-22T12:23:54.315Z,29.80
2018-07-22T12:26:23.748Z,29.60
2018-07-22T12:28:53.139Z,29.40
2018-07-22T12:31:22.589Z,29.40
2018-07-22T12:33:52.037Z,29.40
2018-07-22T12:36:21.456Z,29.20
2018-07-22T12:38:50.986Z,29.20
2018-07-22T12:43:49.409Z,29.00
2018-07-22T12:46:18.869Z,28.90
2018-07-22T12:48:48.238Z,28.90
2018-07-22T12:51:17.669Z,29.00
2018-07-22T12:53:47.183Z,28.90
2018-07-22T12:56:16.592Z,29.00
2018-07-22T13:01:14.894Z,28.90
2018-07-22T13:06:13.309Z,28.90
2018-07-22T13:08:42.738Z,28.80
2018-07-22T13:11:12.260Z,28.80
2018-07-22T13:13:41.711Z,28.80
2018-07-22T13:16:11.120Z,28.70
2018-07-22T13:18:40.565Z,28.70
2018-07-22T13:21:10.000Z,28.60
2018-07-22T13:26:08.273Z,28.50
2018-07-22T13:28:37.727Z,28.50
2018-07-22T13:31:07.220Z,28.60
2018-07-22T13:33:36.665Z,28.60
2018-07-22T13:36:06.105Z,28.60
2018-07-22T13:38:35.614Z,28.60
2018-07-22T13:43:34.277Z,28.60
2018-07-22T13:46:03.767Z,28.50
2018-07-22T13:48:33.242Z,28.50
2018-07-22T13:51:02.667Z,28.40
2018-07-22T13:53:32.152Z,28.40
2018-07-22T13:56:01.556Z,28.30
2018-07-22T13:58:30.992Z,28.30
2018-07-22T14:01:00.456Z,28.30
2018-07-22T14:03:29.870Z,28.40
2018-07-22T14:05:59.689Z,28.40
2018-07-22T14:08:29.190Z,28.50
2018-07-22T14:10:58.627Z,28.50
2018-07-22T14:13:28.088Z,28.50
2018-07-22T14:15:57.517Z,28.50
2018-07-22T14:18:27.002Z,28.50
2018-07-22T14:20:56.439Z,28.50
2018-07-22T14:23:26.122Z,28.50
2018-07-22T14:25:55.538Z,28.40
2018-07-22T14:28:24.960Z,28.40
2018-07-22T14:30:54.428Z,28.40
2018-07-22T14:33:23.834Z,28.40
2018-07-22T14:35:53.224Z,28.30
2018-07-22T14:38:22.694Z,28.30
2018-07-22T14:40:52.134Z,28.40
2018-07-22T14:43:21.610Z,28.40
2018-07-22T14:45:51.002Z,28.30
2018-07-22T14:48:20.460Z,28.30
2018-07-22T14:50:49.859Z,28.20
2018-07-22T14:55:48.776Z,28.10
2018-07-22T14:58:18.288Z,28.20
2018-07-22T15:00:47.672Z,28.10
2018-07-22T15:03:17.051Z,28.00
2018-07-22T15:05:46.454Z,28.00
2018-07-22T15:10:44.690Z,28.00
2018-07-22T15:13:14.104Z,27.90
2018-07-22T15:15:43.619Z,27.90
2018-07-22T15:18:13.075Z,27.80
2018-07-22T15:20:42.526Z,27.80
2018-07-22T15:23:11.975Z,27.80
2018-07-22T15:25:41.350Z,27.80
2018-07-22T15:30:40.109Z,27.90
2018-07-22T15:33:09.485Z,27.90
2018-07-22T15:35:38.929Z,27.80
2018-07-22T15:38:08.380Z,27.80
2018-07-22T15:40:37.805Z,27.90
2018-07-22T15:43:07.218Z,27.90
2018-07-22T15:45:36.691Z,27.80
2018-07-22T15:48:06.134Z,27.80
2018-07-22T15:50:35.553Z,27.90
2018-07-22T15:53:04.997Z,27.80
2018-07-22T15:55:34.591Z,27.80
2018-07-22T15:58:03.895Z,27.80
2018-07-22T16:03:02.166Z,27.80
2018-07-22T16:05:31.580Z,27.80
2018-07-22T16:08:01.100Z,27.70
2018-07-22T16:10:30.494Z,27.70
2018-07-22T16:13:00.097Z,27.70
2018-07-22T16:15:29.495Z,27.70
2018-07-22T16:17:58.983Z,27.60
2018-07-22T16:20:28.489Z,27.60
2018-07-22T16:22:58.054Z,27.60
2018-07-22T16:25:27.775Z,27.60
2018-07-22T16:27:57.394Z,27.60
2018-07-22T16:30:26.891Z,27.70
2018-07-22T16:32:56.645Z,27.60
2018-07-22T16:37:55.042Z,27.60
2018-07-22T16:42:53.369Z,27.60
2018-07-22T16:45:22.805Z,27.70
2018-07-22T16:47:52.506Z,27.60
2018-07-22T16:50:22.006Z,27.60
2018-07-22T16:52:51.570Z,27.60
2018-07-22T16:57:50.090Z,27.50
2018-07-22T17:00:19.575Z,27.40
2018-07-22T17:05:18.014Z,27.50
2018-07-22T17:07:48.358Z,27.50
2018-07-22T17:10:18.255Z,27.40
2018-07-22T17:12:48.175Z,27.50
2018-07-22T17:15:17.886Z,27.50
2018-07-22T17:17:47.325Z,27.50
2018-07-22T17:20:16.856Z,27.50
2018-07-22T17:22:46.289Z,27.50
2018-07-22T17:25:15.721Z,27.40
2018-07-22T17:27:45.131Z,27.50
2018-07-22T17:30:14.587Z,27.50
2018-07-22T17:32:44.002Z,27.50
2018-07-22T17:35:13.388Z,27.40
2018-07-22T17:37:42.932Z,27.50
2018-07-22T17:40:12.434Z,27.50
2018-07-22T17:42:41.983Z,27.40
2018-07-22T17:45:11.544Z,27.40
2018-07-22T17:47:41.826Z,27.40
2018-07-22T17:50:11.216Z,27.40
2018-07-22T17:55:09.475Z,27.40
2018-07-22T17:57:38.846Z,27.40
2018-07-22T18:00:08.858Z,27.40
2018-07-22T18:02:40.706Z,27.30
2018-07-22T18:05:10.197Z,27.40
2018-07-22T18:07:39.626Z,27.40
2018-07-22T18:10:09.058Z,27.30
2018-07-22T18:12:38.529Z,27.40
2018-07-22T18:15:08.067Z,27.40
2018-07-22T18:17:37.546Z,27.40
2018-07-22T18:20:07.125Z,27.40
2018-07-22T18:22:36.682Z,27.30
2018-07-22T18:25:06.165Z,27.30
2018-07-22T18:32:33.596Z,27.30
2018-07-22T18:35:03.056Z,27.30
2018-07-22T18:37:32.530Z,27.30
2018-07-22T18:40:01.902Z,27.20
2018-07-22T18:42:31.373Z,27.30
2018-07-22T18:45:00.794Z,27.30
2018-07-22T18:47:30.179Z,27.30
2018-07-22T18:49:59.658Z,27.20
2018-07-22T18:52:29.282Z,27.30
2018-07-22T18:54:58.954Z,27.30
2018-07-22T18:57:28.418Z,27.30
2018-07-22T18:59:58.155Z,27.30
2018-07-22T19:07:25.773Z,27.30
2018-07-22T19:09:55.250Z,27.20
2018-07-22T19:17:22.457Z,27.30
2018-07-22T19:19:52.011Z,27.20
2018-07-22T19:22:21.594Z,27.20
2018-07-22T19:24:51.132Z,27.20
2018-07-22T19:27:20.491Z,27.20
2018-07-22T19:29:49.972Z,27.20
2018-07-22T19:32:19.473Z,27.30
2018-07-22T19:34:48.988Z,27.20
2018-07-22T19:37:18.494Z,27.30
2018-07-22T19:39:47.925Z,27.20
2018-07-22T19:42:17.347Z,27.20
2018-07-22T19:44:46.818Z,27.30
2018-07-22T19:47:16.310Z,27.30
2018-07-22T19:49:45.772Z,27.30
2018-07-22T19:52:15.243Z,27.30
2018-07-22T19:54:44.652Z,27.20
2018-07-22T19:57:14.055Z,27.20
2018-07-22T19:59:43.571Z,27.20
2018-07-22T20:02:13.055Z,27.20
2018-07-22T20:04:42.653Z,27.20
2018-07-22T20:07:12.302Z,27.20
2018-07-22T20:09:41.782Z,27.20
2018-07-22T20:12:11.369Z,27.20
2018-07-22T20:14:41.030Z,27.20
2018-07-22T20:17:10.571Z,27.20
2018-07-22T20:19:40.839Z,27.20
2018-07-22T20:22:10.820Z,27.20
2018-07-22T20:24:41.631Z,27.20
2018-07-22T20:27:12.467Z,27.20
2018-07-22T20:29:42.153Z,27.20
2018-07-22T20:32:11.731Z,27.20
2018-07-22T20:34:41.264Z,27.20
2018-07-22T20:39:40.272Z,27.20
2018-07-22T20:42:09.770Z,27.20
2018-07-22T20:44:39.270Z,27.20
2018-07-22T20:47:08.854Z,27.20
2018-07-22T20:49:38.399Z,27.20
2018-07-22T20:52:08.201Z,27.30
2018-07-22T20:54:38.081Z,27.20
2018-07-22T20:57:07.578Z,27.30
2018-07-22T20:59:37.238Z,27.30
2018-07-22T21:02:07.169Z,27.30
2018-07-22T21:04:36.851Z,27.20
2018-07-22T21:07:06.606Z,27.20
2018-07-22T21:09:37.553Z,27.20
2018-07-22T21:12:44.832Z,27.20
2018-07-22T21:15:15.322Z,27.20
2018-07-22T21:17:46.218Z,27.30
2018-07-22T21:20:16.482Z,27.30
2018-07-22T21:22:46.183Z,27.20
2018-07-22T21:25:16.708Z,27.20
2018-07-22T21:27:46.557Z,27.20
2018-07-22T21:30:16.448Z,27.20
2018-07-22T21:32:46.024Z,27.20
2018-07-22T21:35:15.510Z,27.20
2018-07-22T21:37:44.960Z,27.20
2018-07-22T21:40:14.405Z,27.20
2018-07-22T21:42:43.843Z,27.20
2018-07-22T21:45:13.380Z,27.20
2018-07-22T21:47:42.877Z,27.20
2018-07-22T21:50:12.354Z,27.20
2018-07-22T21:52:41.918Z,27.20
2018-07-22T21:55:11.376Z,27.20
2018-07-22T21:57:40.873Z,27.20
2018-07-22T22:00:18.877Z,27.20
2018-07-22T22:02:54.689Z,27.20
2018-07-22T22:07:53.150Z,27.20
2018-07-22T22:10:22.714Z,27.30
2018-07-22T22:12:52.099Z,27.30
2018-07-22T22:15:29.367Z,27.20
2018-07-22T22:18:00.920Z,27.20
2018-07-22T22:25:28.416Z,27.30
2018-07-22T22:30:26.728Z,27.20
2018-07-22T22:32:56.120Z,27.30
2018-07-22T22:37:54.508Z,27.30
2018-07-22T22:42:52.893Z,27.20
2018-07-22T22:47:51.258Z,27.20
2018-07-22T22:50:20.687Z,27.20
2018-07-22T22:52:50.094Z,27.30
2018-07-22T22:55:19.538Z,27.20
2018-07-22T22:58:57.427Z,27.30
2018-07-22T23:01:27.029Z,27.30
2018-07-22T23:08:54.458Z,27.20
2018-07-22T23:11:24.080Z,27.20
2018-07-22T23:13:53.460Z,27.10
2018-07-22T23:16:22.935Z,27.10
2018-07-22T23:21:21.195Z,27.10
2018-07-22T23:23:50.588Z,27.10
2018-07-22T23:26:20.050Z,27.10
2018-07-22T23:28:49.445Z,27.10
2018-07-22T23:31:18.839Z,27.00
2018-07-22T23:33:48.283Z,27.00
2018-07-22T23:36:17.662Z,27.00
2018-07-22T23:38:47.102Z,27.10
2018-07-22T23:41:16.534Z,27.10
2018-07-22T23:46:14.882Z,27.00
2018-07-22T23:48:44.384Z,27.00
2018-07-22T23:51:13.795Z,27.00
2018-07-22T23:53:43.198Z,27.00
2018-07-22T23:56:12.628Z,27.00
2018-07-22T23:58:42.142Z,27.00
